sensor_id;sensor_type;location;lat;lon;timestamp;P1;durP1;ratioP1;P2;durP2;ratioP2
39448;SDS011;25151;45.566;9.382;2023-07-09T00:03:33;6.35;;;3.20;;
39448;SDS011;25151;45.566;9.382;2023-07-09T00:06:01;4.00;;;2.35;;
39448;SDS011;25151;45.566;9.382;2023-07-09T00:08:28;2.95;;;2.35;;
39448;SDS011;25151;45.566;9.382;2023-07-09T00:13:26;3.05;;;2.35;;
39448;SDS011;25151;45.566;9.382;2023-07-09T00:18:51;3.78;;;2.58;;
39448;SDS011;25151;45.566;9.382;2023-07-09T00:21:19;4.55;;;2.30;;
39448;SDS011;25151;45.566;9.382;2023-07-09T00:27:09;4.40;;;2.55;;
39448;SDS011;25151;45.566;9.382;2023-07-09T00:29:37;3.55;;;2.55;;
39448;SDS011;25151;45.566;9.382;2023-07-09T00:32:07;3.72;;;2.42;;
39448;SDS011;25151;45.566;9.382;2023-07-09T00:37:31;4.38;;;2.78;;
39448;SDS011;25151;45.566;9.382;2023-07-09T00:39:59;3.63;;;2.90;;
39448;SDS011;25151;45.566;9.382;2023-07-09T00:42:26;2.75;;;2.25;;
39448;SDS011;25151;45.566;9.382;2023-07-09T00:44:54;3.55;;;2.67;;
39448;SDS011;25151;45.566;9.382;2023-07-09T00:47:25;5.72;;;2.40;;
39448;SDS011;25151;45.566;9.382;2023-07-09T00:50:38;5.38;;;2.85;;
39448;SDS011;25151;45.566;9.382;2023-07-09T00:53:43;2.75;;;2.25;;
39448;SDS011;25151;45.566;9.382;2023-07-09T00:56:26;4.15;;;2.88;;
39448;SDS011;25151;45.566;9.382;2023-07-09T01:02:34;3.65;;;2.30;;
39448;SDS011;25151;45.566;9.382;2023-07-09T01:05:21;4.35;;;2.38;;
39448;SDS011;25151;45.566;9.382;2023-07-09T01:07:48;3.58;;;2.55;;
39448;SDS011;25151;45.566;9.382;2023-07-09T01:13:37;3.92;;;2.92;;
39448;SDS011;25151;45.566;9.382;2023-07-09T01:16:04;2.80;;;2.17;;
39448;SDS011;25151;45.566;9.382;2023-07-09T01:18:33;4.47;;;3.08;;
39448;SDS011;25151;45.566;9.382;2023-07-09T01:21:03;3.45;;;2.13;;
39448;SDS011;25151;45.566;9.382;2023-07-09T01:23:43;4.65;;;3.10;;
39448;SDS011;25151;45.566;9.382;2023-07-09T01:29:33;3.60;;;2.47;;
39448;SDS011;25151;45.566;9.382;2023-07-09T01:32:01;4.07;;;2.80;;
39448;SDS011;25151;45.566;9.382;2023-07-09T01:34:29;3.08;;;2.28;;
39448;SDS011;25151;45.566;9.382;2023-07-09T01:36:57;2.97;;;2.35;;
39448;SDS011;25151;45.566;9.382;2023-07-09T01:39:25;4.93;;;2.58;;
39448;SDS011;25151;45.566;9.382;2023-07-09T01:41:55;4.20;;;2.70;;
39448;SDS011;25151;45.566;9.382;2023-07-09T01:44:22;4.18;;;2.67;;
39448;SDS011;25151;45.566;9.382;2023-07-09T01:46:54;3.90;;;3.17;;
39448;SDS011;25151;45.566;9.382;2023-07-09T01:49:22;4.47;;;2.97;;
39448;SDS011;25151;45.566;9.382;2023-07-09T01:51:55;3.65;;;2.42;;
39448;SDS011;25151;45.566;9.382;2023-07-09T01:54:22;3.20;;;2.63;;
39448;SDS011;25151;45.566;9.382;2023-07-09T01:56:49;4.75;;;3.15;;
39448;SDS011;25151;45.566;9.382;2023-07-09T01:59:16;2.67;;;2.22;;
39448;SDS011;25151;45.566;9.382;2023-07-09T02:05:07;4.88;;;2.65;;
39448;SDS011;25151;45.566;9.382;2023-07-09T02:07:35;2.90;;;2.33;;
39448;SDS011;25151;45.566;9.382;2023-07-09T02:10:02;4.00;;;3.00;;
39448;SDS011;25151;45.566;9.382;2023-07-09T02:15:35;4.25;;;3.00;;
39448;SDS011;25151;45.566;9.382;2023-07-09T02:21:09;3.92;;;2.30;;
39448;SDS011;25151;45.566;9.382;2023-07-09T02:23:36;3.78;;;2.58;;
39448;SDS011;25151;45.566;9.382;2023-07-09T02:26:03;3.13;;;2.28;;
39448;SDS011;25151;45.566;9.382;2023-07-09T02:31:54;2.90;;;2.60;;
39448;SDS011;25151;45.566;9.382;2023-07-09T02:34:23;3.45;;;2.55;;
39448;SDS011;25151;45.566;9.382;2023-07-09T02:36:52;2.80;;;2.10;;
39448;SDS011;25151;45.566;9.382;2023-07-09T02:39:20;3.63;;;2.70;;
39448;SDS011;25151;45.566;9.382;2023-07-09T02:41:48;3.17;;;2.78;;
39448;SDS011;25151;45.566;9.382;2023-07-09T02:44:16;4.07;;;2.83;;
39448;SDS011;25151;45.566;9.382;2023-07-09T02:46:44;3.42;;;2.63;;
39448;SDS011;25151;45.566;9.382;2023-07-09T02:49:12;3.55;;;2.70;;
39448;SDS011;25151;45.566;9.382;2023-07-09T02:51:40;3.17;;;2.45;;
39448;SDS011;25151;45.566;9.382;2023-07-09T02:54:08;3.92;;;2.25;;
39448;SDS011;25151;45.566;9.382;2023-07-09T02:56:35;3.30;;;2.85;;
39448;SDS011;25151;45.566;9.382;2023-07-09T02:59:03;3.88;;;2.38;;
39448;SDS011;25151;45.566;9.382;2023-07-09T03:01:30;4.22;;;2.50;;
39448;SDS011;25151;45.566;9.382;2023-07-09T03:06:28;4.40;;;2.47;;
39448;SDS011;25151;45.566;9.382;2023-07-09T03:09:00;2.53;;;2.25;;
39448;SDS011;25151;45.566;9.382;2023-07-09T03:11:31;3.67;;;2.60;;
39448;SDS011;25151;45.566;9.382;2023-07-09T03:14:00;3.92;;;2.53;;
39448;SDS011;25151;45.566;9.382;2023-07-09T03:16:28;3.63;;;2.35;;
39448;SDS011;25151;45.566;9.382;2023-07-09T03:18:56;3.50;;;2.60;;
39448;SDS011;25151;45.566;9.382;2023-07-09T03:21:24;5.95;;;2.88;;
39448;SDS011;25151;45.566;9.382;2023-07-09T03:23:53;3.10;;;2.28;;
39448;SDS011;25151;45.566;9.382;2023-07-09T03:26:24;3.30;;;2.50;;
39448;SDS011;25151;45.566;9.382;2023-07-09T03:28:52;3.22;;;2.42;;
39448;SDS011;25151;45.566;9.382;2023-07-09T03:34:05;3.03;;;2.25;;
39448;SDS011;25151;45.566;9.382;2023-07-09T03:36:32;3.20;;;2.63;;
39448;SDS011;25151;45.566;9.382;2023-07-09T03:39:02;3.45;;;2.45;;
39448;SDS011;25151;45.566;9.382;2023-07-09T03:41:31;5.43;;;2.65;;
39448;SDS011;25151;45.566;9.382;2023-07-09T03:47:19;4.45;;;3.00;;
39448;SDS011;25151;45.566;9.382;2023-07-09T03:49:46;2.90;;;2.33;;
39448;SDS011;25151;45.566;9.382;2023-07-09T03:52:13;2.90;;;2.20;;
39448;SDS011;25151;45.566;9.382;2023-07-09T03:54:41;2.95;;;1.98;;
39448;SDS011;25151;45.566;9.382;2023-07-09T03:57:12;3.60;;;2.50;;
39448;SDS011;25151;45.566;9.382;2023-07-09T03:59:40;6.38;;;3.70;;
39448;SDS011;25151;45.566;9.382;2023-07-09T04:07:45;10.75;;;5.10;;
39448;SDS011;25151;45.566;9.382;2023-07-09T04:10:13;8.85;;;4.47;;
39448;SDS011;25151;45.566;9.382;2023-07-09T04:13:03;12.70;;;5.22;;
39448;SDS011;25151;45.566;9.382;2023-07-09T04:15:30;9.15;;;4.70;;
39448;SDS011;25151;45.566;9.382;2023-07-09T04:21:28;8.75;;;4.90;;
39448;SDS011;25151;45.566;9.382;2023-07-09T04:23:55;7.30;;;4.73;;
39448;SDS011;25151;45.566;9.382;2023-07-09T04:29:52;9.43;;;4.18;;
39448;SDS011;25151;45.566;9.382;2023-07-09T04:32:20;7.38;;;4.93;;
39448;SDS011;25151;45.566;9.382;2023-07-09T04:34:47;7.93;;;4.90;;
39448;SDS011;25151;45.566;9.382;2023-07-09T04:37:17;7.72;;;5.50;;
39448;SDS011;25151;45.566;9.382;2023-07-09T04:39:45;9.85;;;5.00;;
39448;SDS011;25151;45.566;9.382;2023-07-09T04:42:15;7.78;;;5.20;;
39448;SDS011;25151;45.566;9.382;2023-07-09T04:44:45;6.63;;;4.93;;
39448;SDS011;25151;45.566;9.382;2023-07-09T04:47:12;7.40;;;4.95;;
39448;SDS011;25151;45.566;9.382;2023-07-09T04:49:39;9.05;;;4.82;;
39448;SDS011;25151;45.566;9.382;2023-07-09T04:55:31;9.13;;;5.75;;
39448;SDS011;25151;45.566;9.382;2023-07-09T05:01:23;7.10;;;4.57;;
39448;SDS011;25151;45.566;9.382;2023-07-09T05:03:51;10.02;;;5.32;;
39448;SDS011;25151;45.566;9.382;2023-07-09T05:06:18;6.53;;;4.45;;
39448;SDS011;25151;45.566;9.382;2023-07-09T05:08:45;7.28;;;5.28;;
39448;SDS011;25151;45.566;9.382;2023-07-09T05:11:13;6.68;;;4.78;;
39448;SDS011;25151;45.566;9.382;2023-07-09T05:16:32;9.77;;;5.25;;
39448;SDS011;25151;45.566;9.382;2023-07-09T05:18:58;12.40;;;5.03;;
39448;SDS011;25151;45.566;9.382;2023-07-09T05:21:28;9.00;;;5.63;;
39448;SDS011;25151;45.566;9.382;2023-07-09T05:23:55;10.50;;;4.72;;
39448;SDS011;25151;45.566;9.382;2023-07-09T05:26:22;8.10;;;4.85;;
39448;SDS011;25151;45.566;9.382;2023-07-09T05:32:14;7.80;;;4.97;;
39448;SDS011;25151;45.566;9.382;2023-07-09T05:38:08;6.57;;;4.70;;
39448;SDS011;25151;45.566;9.382;2023-07-09T05:40:35;8.63;;;5.00;;
39448;SDS011;25151;45.566;9.382;2023-07-09T05:46:13;8.75;;;5.38;;
39448;SDS011;25151;45.566;9.382;2023-07-09T05:48:43;6.10;;;4.93;;
39448;SDS011;25151;45.566;9.382;2023-07-09T05:51:17;9.85;;;5.43;;
39448;SDS011;25151;45.566;9.382;2023-07-09T05:56:46;7.93;;;5.40;;
39448;SDS011;25151;45.566;9.382;2023-07-09T05:59:19;9.13;;;5.35;;
39448;SDS011;25151;45.566;9.382;2023-07-09T06:05:13;8.30;;;5.20;;
39448;SDS011;25151;45.566;9.382;2023-07-09T06:11:05;9.13;;;4.32;;
39448;SDS011;25151;45.566;9.382;2023-07-09T06:13:36;7.78;;;4.97;;
39448;SDS011;25151;45.566;9.382;2023-07-09T06:19:33;7.55;;;4.80;;
39448;SDS011;25151;45.566;9.382;2023-07-09T06:22:03;8.23;;;5.03;;
39448;SDS011;25151;45.566;9.382;2023-07-09T06:27:36;9.40;;;4.88;;
39448;SDS011;25151;45.566;9.382;2023-07-09T06:30:03;10.50;;;4.72;;
39448;SDS011;25151;45.566;9.382;2023-07-09T06:32:31;8.02;;;5.03;;
39448;SDS011;25151;45.566;9.382;2023-07-09T06:35:03;8.07;;;4.32;;
39448;SDS011;25151;45.566;9.382;2023-07-09T06:37:35;6.53;;;4.32;;
39448;SDS011;25151;45.566;9.382;2023-07-09T06:40:06;7.07;;;4.13;;
39448;SDS011;25151;45.566;9.382;2023-07-09T06:42:37;8.82;;;4.45;;
39448;SDS011;25151;45.566;9.382;2023-07-09T06:45:05;7.45;;;4.47;;
39448;SDS011;25151;45.566;9.382;2023-07-09T06:47:35;7.85;;;4.38;;
39448;SDS011;25151;45.566;9.382;2023-07-09T06:50:05;7.00;;;4.95;;
39448;SDS011;25151;45.566;9.382;2023-07-09T06:52:34;8.68;;;4.40;;
39448;SDS011;25151;45.566;9.382;2023-07-09T06:55:22;7.30;;;4.45;;
39448;SDS011;25151;45.566;9.382;2023-07-09T06:57:50;6.82;;;3.67;;
39448;SDS011;25151;45.566;9.382;2023-07-09T07:02:50;6.25;;;4.30;;
39448;SDS011;25151;45.566;9.382;2023-07-09T07:05:19;7.13;;;4.75;;
39448;SDS011;25151;45.566;9.382;2023-07-09T07:07:52;8.38;;;5.00;;
39448;SDS011;25151;45.566;9.382;2023-07-09T07:10:22;12.98;;;5.68;;
39448;SDS011;25151;45.566;9.382;2023-07-09T07:12:54;5.60;;;4.00;;
39448;SDS011;25151;45.566;9.382;2023-07-09T07:18:17;7.28;;;4.20;;
39448;SDS011;25151;45.566;9.382;2023-07-09T07:20:47;6.53;;;4.28;;
39448;SDS011;25151;45.566;9.382;2023-07-09T07:23:19;6.13;;;4.30;;
39448;SDS011;25151;45.566;9.382;2023-07-09T07:31:42;6.53;;;3.75;;
39448;SDS011;25151;45.566;9.382;2023-07-09T07:34:17;7.60;;;4.57;;
39448;SDS011;25151;45.566;9.382;2023-07-09T07:37:02;15.60;;;5.03;;
39448;SDS011;25151;45.566;9.382;2023-07-09T07:39:57;8.93;;;4.40;;
39448;SDS011;25151;45.566;9.382;2023-07-09T07:42:27;10.68;;;4.28;;
39448;SDS011;25151;45.566;9.382;2023-07-09T07:44:59;9.00;;;4.53;;
39448;SDS011;25151;45.566;9.382;2023-07-09T07:47:26;9.75;;;4.68;;
39448;SDS011;25151;45.566;9.382;2023-07-09T07:50:19;11.68;;;4.88;;
39448;SDS011;25151;45.566;9.382;2023-07-09T07:56:11;15.02;;;4.78;;
39448;SDS011;25151;45.566;9.382;2023-07-09T07:58:41;10.00;;;4.88;;
39448;SDS011;25151;45.566;9.382;2023-07-09T08:04:32;13.18;;;4.97;;
39448;SDS011;25151;45.566;9.382;2023-07-09T08:07:05;12.93;;;4.88;;
39448;SDS011;25151;45.566;9.382;2023-07-09T08:10:12;12.38;;;4.50;;
39448;SDS011;25151;45.566;9.382;2023-07-09T08:12:43;11.00;;;4.18;;
39448;SDS011;25151;45.566;9.382;2023-07-09T08:15:32;10.38;;;5.05;;
39448;SDS011;25151;45.566;9.382;2023-07-09T08:21:21;11.90;;;4.45;;
39448;SDS011;25151;45.566;9.382;2023-07-09T08:23:50;13.00;;;4.40;;
39448;SDS011;25151;45.566;9.382;2023-07-09T08:26:16;10.90;;;5.00;;
39448;SDS011;25151;45.566;9.382;2023-07-09T08:28:47;12.13;;;4.90;;
39448;SDS011;25151;45.566;9.382;2023-07-09T08:31:20;12.02;;;4.40;;
39448;SDS011;25151;45.566;9.382;2023-07-09T08:37:11;12.23;;;4.82;;
39448;SDS011;25151;45.566;9.382;2023-07-09T08:39:41;7.55;;;4.22;;
39448;SDS011;25151;45.566;9.382;2023-07-09T08:42:13;11.38;;;4.82;;
39448;SDS011;25151;45.566;9.382;2023-07-09T08:48:32;15.13;;;4.07;;
39448;SDS011;25151;45.566;9.382;2023-07-09T08:54:29;11.63;;;5.20;;
39448;SDS011;25151;45.566;9.382;2023-07-09T09:04:02;15.32;;;4.28;;
39448;SDS011;25151;45.566;9.382;2023-07-09T09:10:02;17.42;;;4.35;;
39448;SDS011;25151;45.566;9.382;2023-07-09T09:12:40;6.95;;;4.18;;
39448;SDS011;25151;45.566;9.382;2023-07-09T09:15:27;10.65;;;4.60;;
39448;SDS011;25151;45.566;9.382;2023-07-09T09:21:21;8.15;;;3.85;;
39448;SDS011;25151;45.566;9.382;2023-07-09T09:27:51;7.95;;;4.07;;
39448;SDS011;25151;45.566;9.382;2023-07-09T09:33:45;8.90;;;4.47;;
39448;SDS011;25151;45.566;9.382;2023-07-09T09:36:45;8.75;;;4.47;;
39448;SDS011;25151;45.566;9.382;2023-07-09T09:39:50;11.88;;;4.53;;
39448;SDS011;25151;45.566;9.382;2023-07-09T09:42:20;9.65;;;4.57;;
39448;SDS011;25151;45.566;9.382;2023-07-09T09:44:52;10.77;;;3.63;;
39448;SDS011;25151;45.566;9.382;2023-07-09T09:50:50;8.82;;;4.30;;
39448;SDS011;25151;45.566;9.382;2023-07-09T09:53:52;5.22;;;3.90;;
39448;SDS011;25151;45.566;9.382;2023-07-09T09:56:56;8.10;;;4.63;;
39448;SDS011;25151;45.566;9.382;2023-07-09T10:03:02;11.20;;;4.38;;
39448;SDS011;25151;45.566;9.382;2023-07-09T10:05:44;13.15;;;4.70;;
39448;SDS011;25151;45.566;9.382;2023-07-09T10:36:09;11.23;;;4.13;;
39448;SDS011;25151;45.566;9.382;2023-07-09T10:46:36;9.15;;;3.50;;
39448;SDS011;25151;45.566;9.382;2023-07-09T10:49:04;11.20;;;3.90;;
39448;SDS011;25151;45.566;9.382;2023-07-09T10:51:39;11.20;;;4.13;;
39448;SDS011;25151;45.566;9.382;2023-07-09T10:57:54;11.25;;;4.38;;
39448;SDS011;25151;45.566;9.382;2023-07-09T11:04:06;15.25;;;3.70;;
39448;SDS011;25151;45.566;9.382;2023-07-09T11:07:27;12.95;;;4.95;;
39448;SDS011;25151;45.566;9.382;2023-07-09T11:32:46;6.88;;;3.95;;
39448;SDS011;25151;45.566;9.382;2023-07-09T11:38:40;5.88;;;3.88;;
39448;SDS011;25151;45.566;9.382;2023-07-09T11:41:33;9.20;;;3.42;;
39448;SDS011;25151;45.566;9.382;2023-07-09T11:44:45;9.13;;;4.53;;
39448;SDS011;25151;45.566;9.382;2023-07-09T11:48:01;6.10;;;3.63;;
39448;SDS011;25151;45.566;9.382;2023-07-09T11:54:36;6.97;;;3.55;;
39448;SDS011;25151;45.566;9.382;2023-07-09T12:00:29;7.68;;;3.90;;
39448;SDS011;25151;45.566;9.382;2023-07-09T12:11:37;7.13;;;3.58;;
39448;SDS011;25151;45.566;9.382;2023-07-09T12:17:32;6.72;;;3.03;;
39448;SDS011;25151;45.566;9.382;2023-07-09T12:19:59;9.02;;;3.60;;
39448;SDS011;25151;45.566;9.382;2023-07-09T12:22:26;7.93;;;4.30;;
39448;SDS011;25151;45.566;9.382;2023-07-09T12:24:54;5.22;;;3.65;;
39448;SDS011;25151;45.566;9.382;2023-07-09T12:27:23;6.00;;;3.05;;
39448;SDS011;25151;45.566;9.382;2023-07-09T12:35:45;5.90;;;3.15;;
39448;SDS011;25151;45.566;9.382;2023-07-09T12:38:19;6.05;;;3.40;;
39448;SDS011;25151;45.566;9.382;2023-07-09T12:40:49;7.10;;;3.25;;
39448;SDS011;25151;45.566;9.382;2023-07-09T12:46:39;6.63;;;3.28;;
39448;SDS011;25151;45.566;9.382;2023-07-09T12:49:12;7.25;;;3.17;;
39448;SDS011;25151;45.566;9.382;2023-07-09T12:52:13;5.28;;;3.22;;
39448;SDS011;25151;45.566;9.382;2023-07-09T12:55:20;5.78;;;3.47;;
39448;SDS011;25151;45.566;9.382;2023-07-09T12:57:51;6.10;;;3.20;;
39448;SDS011;25151;45.566;9.382;2023-07-09T13:03:54;3.85;;;2.90;;
39448;SDS011;25151;45.566;9.382;2023-07-09T13:10:25;10.20;;;3.17;;
39448;SDS011;25151;45.566;9.382;2023-07-09T13:12:55;7.82;;;3.03;;
39448;SDS011;25151;45.566;9.382;2023-07-09T13:18:52;8.32;;;3.05;;
39448;SDS011;25151;45.566;9.382;2023-07-09T13:21:20;5.40;;;3.03;;
39448;SDS011;25151;45.566;9.382;2023-07-09T13:23:49;7.63;;;3.00;;
39448;SDS011;25151;45.566;9.382;2023-07-09T13:29:39;7.65;;;2.88;;
39448;SDS011;25151;45.566;9.382;2023-07-09T13:32:14;7.07;;;2.45;;
39448;SDS011;25151;45.566;9.382;2023-07-09T13:38:14;6.43;;;3.70;;
39448;SDS011;25151;45.566;9.382;2023-07-09T13:40:43;4.75;;;3.20;;
39448;SDS011;25151;45.566;9.382;2023-07-09T13:43:14;5.10;;;2.55;;
39448;SDS011;25151;45.566;9.382;2023-07-09T13:45:45;4.80;;;2.78;;
39448;SDS011;25151;45.566;9.382;2023-07-09T13:48:15;4.35;;;2.67;;
39448;SDS011;25151;45.566;9.382;2023-07-09T13:50:44;8.65;;;2.97;;
39448;SDS011;25151;45.566;9.382;2023-07-09T13:53:14;7.57;;;3.20;;
39448;SDS011;25151;45.566;9.382;2023-07-09T13:55:45;4.07;;;2.78;;
39448;SDS011;25151;45.566;9.382;2023-07-09T13:58:13;7.97;;;3.22;;
39448;SDS011;25151;45.566;9.382;2023-07-09T14:00:45;4.68;;;3.10;;
39448;SDS011;25151;45.566;9.382;2023-07-09T14:03:20;5.10;;;2.80;;
39448;SDS011;25151;45.566;9.382;2023-07-09T14:09:11;5.63;;;2.95;;
39448;SDS011;25151;45.566;9.382;2023-07-09T14:11:43;5.55;;;3.38;;
39448;SDS011;25151;45.566;9.382;2023-07-09T14:23:54;2.63;;;2.10;;
39448;SDS011;25151;45.566;9.382;2023-07-09T14:33:40;6.55;;;2.92;;
39448;SDS011;25151;45.566;9.382;2023-07-09T14:36:08;6.65;;;3.05;;
39448;SDS011;25151;45.566;9.382;2023-07-09T14:38:35;5.43;;;3.30;;
39448;SDS011;25151;45.566;9.382;2023-07-09T14:41:04;4.38;;;2.70;;
39448;SDS011;25151;45.566;9.382;2023-07-09T14:44:02;7.10;;;3.20;;
39448;SDS011;25151;45.566;9.382;2023-07-09T14:47:24;5.78;;;2.90;;
39448;SDS011;25151;45.566;9.382;2023-07-09T14:53:15;8.00;;;2.70;;
39448;SDS011;25151;45.566;9.382;2023-07-09T14:55:45;7.70;;;3.20;;
39448;SDS011;25151;45.566;9.382;2023-07-09T14:58:19;6.65;;;3.10;;
39448;SDS011;25151;45.566;9.382;2023-07-09T15:00:48;7.50;;;2.78;;
39448;SDS011;25151;45.566;9.382;2023-07-09T15:03:24;6.78;;;2.70;;
39448;SDS011;25151;45.566;9.382;2023-07-09T15:05:52;5.35;;;2.72;;
39448;SDS011;25151;45.566;9.382;2023-07-09T15:08:23;6.45;;;2.72;;
39448;SDS011;25151;45.566;9.382;2023-07-09T15:10:51;6.80;;;2.90;;
39448;SDS011;25151;45.566;9.382;2023-07-09T15:16:35;7.80;;;2.67;;
39448;SDS011;25151;45.566;9.382;2023-07-09T15:19:12;3.72;;;2.90;;
39448;SDS011;25151;45.566;9.382;2023-07-09T15:24:43;6.90;;;3.10;;
39448;SDS011;25151;45.566;9.382;2023-07-09T15:27:10;7.10;;;2.65;;
39448;SDS011;25151;45.566;9.382;2023-07-09T15:32:26;4.75;;;2.65;;
39448;SDS011;25151;45.566;9.382;2023-07-09T15:34:56;5.50;;;3.03;;
39448;SDS011;25151;45.566;9.382;2023-07-09T15:37:23;8.70;;;2.80;;
39448;SDS011;25151;45.566;9.382;2023-07-09T15:39:51;7.68;;;2.92;;
39448;SDS011;25151;45.566;9.382;2023-07-09T15:45:49;4.40;;;2.85;;
39448;SDS011;25151;45.566;9.382;2023-07-09T15:48:30;10.25;;;2.83;;
39448;SDS011;25151;45.566;9.382;2023-07-09T15:54:21;4.47;;;2.95;;
39448;SDS011;25151;45.566;9.382;2023-07-09T15:56:50;5.50;;;2.45;;
39448;SDS011;25151;45.566;9.382;2023-07-09T16:05:48;6.00;;;3.00;;
39448;SDS011;25151;45.566;9.382;2023-07-09T16:08:32;5.65;;;3.13;;
39448;SDS011;25151;45.566;9.382;2023-07-09T16:14:22;7.90;;;3.17;;
39448;SDS011;25151;45.566;9.382;2023-07-09T16:16:52;7.43;;;2.90;;
39448;SDS011;25151;45.566;9.382;2023-07-09T16:19:20;5.57;;;2.80;;
39448;SDS011;25151;45.566;9.382;2023-07-09T16:22:00;5.82;;;2.88;;
39448;SDS011;25151;45.566;9.382;2023-07-09T16:27:51;4.45;;;3.30;;
39448;SDS011;25151;45.566;9.382;2023-07-09T16:30:19;5.00;;;2.78;;
39448;SDS011;25151;45.566;9.382;2023-07-09T16:35:17;6.60;;;2.75;;
39448;SDS011;25151;45.566;9.382;2023-07-09T16:41:03;6.78;;;2.67;;
39448;SDS011;25151;45.566;9.382;2023-07-09T16:43:30;6.32;;;2.80;;
39448;SDS011;25151;45.566;9.382;2023-07-09T16:45:58;6.15;;;2.92;;
39448;SDS011;25151;45.566;9.382;2023-07-09T16:48:27;5.43;;;3.30;;
39448;SDS011;25151;45.566;9.382;2023-07-09T16:50:54;5.53;;;2.83;;
39448;SDS011;25151;45.566;9.382;2023-07-09T16:53:22;4.72;;;2.75;;
39448;SDS011;25151;45.566;9.382;2023-07-09T16:55:50;5.07;;;2.63;;
39448;SDS011;25151;45.566;9.382;2023-07-09T16:58:31;5.18;;;2.90;;
39448;SDS011;25151;45.566;9.382;2023-07-09T17:01:00;5.85;;;3.22;;
39448;SDS011;25151;45.566;9.382;2023-07-09T17:03:27;5.43;;;3.67;;
39448;SDS011;25151;45.566;9.382;2023-07-09T17:05:55;3.88;;;2.60;;
39448;SDS011;25151;45.566;9.382;2023-07-09T17:08:24;3.90;;;2.60;;
39448;SDS011;25151;45.566;9.382;2023-07-09T17:10:52;3.45;;;2.78;;
39448;SDS011;25151;45.566;9.382;2023-07-09T17:13:21;4.47;;;2.97;;
39448;SDS011;25151;45.566;9.382;2023-07-09T17:15:49;5.05;;;2.75;;
39448;SDS011;25151;45.566;9.382;2023-07-09T17:18:21;5.03;;;3.00;;
39448;SDS011;25151;45.566;9.382;2023-07-09T17:21:12;4.35;;;2.85;;
39448;SDS011;25151;45.566;9.382;2023-07-09T17:23:39;8.63;;;2.78;;
39448;SDS011;25151;45.566;9.382;2023-07-09T17:26:07;8.93;;;3.33;;
39448;SDS011;25151;45.566;9.382;2023-07-09T17:31:47;5.68;;;2.55;;
39448;SDS011;25151;45.566;9.382;2023-07-09T17:34:14;4.97;;;2.60;;
39448;SDS011;25151;45.566;9.382;2023-07-09T17:36:42;4.90;;;3.10;;
39448;SDS011;25151;45.566;9.382;2023-07-09T17:39:21;5.13;;;2.55;;
39448;SDS011;25151;45.566;9.382;2023-07-09T17:41:57;4.32;;;2.50;;
39448;SDS011;25151;45.566;9.382;2023-07-09T17:44:23;6.03;;;2.72;;
39448;SDS011;25151;45.566;9.382;2023-07-09T17:46:51;11.65;;;2.80;;
39448;SDS011;25151;45.566;9.382;2023-07-09T17:49:31;5.85;;;2.50;;
39448;SDS011;25151;45.566;9.382;2023-07-09T17:51:58;9.30;;;2.97;;
39448;SDS011;25151;45.566;9.382;2023-07-09T17:54:26;8.52;;;3.17;;
39448;SDS011;25151;45.566;9.382;2023-07-09T17:56:54;4.88;;;2.92;;
39448;SDS011;25151;45.566;9.382;2023-07-09T18:02:44;5.03;;;2.35;;
39448;SDS011;25151;45.566;9.382;2023-07-09T18:05:19;6.60;;;2.80;;
39448;SDS011;25151;45.566;9.382;2023-07-09T18:07:47;4.82;;;2.95;;
39448;SDS011;25151;45.566;9.382;2023-07-09T18:10:14;4.68;;;3.20;;
39448;SDS011;25151;45.566;9.382;2023-07-09T18:12:41;5.85;;;2.88;;
39448;SDS011;25151;45.566;9.382;2023-07-09T18:15:08;7.75;;;3.42;;
39448;SDS011;25151;45.566;9.382;2023-07-09T18:17:43;4.35;;;2.63;;
39448;SDS011;25151;45.566;9.382;2023-07-09T18:20:15;8.43;;;2.40;;
39448;SDS011;25151;45.566;9.382;2023-07-09T18:22:42;16.20;;;2.88;;
39448;SDS011;25151;45.566;9.382;2023-07-09T18:25:09;3.10;;;2.20;;
39448;SDS011;25151;45.566;9.382;2023-07-09T18:27:38;4.25;;;2.50;;
39448;SDS011;25151;45.566;9.382;2023-07-09T18:30:21;6.72;;;2.90;;
39448;SDS011;25151;45.566;9.382;2023-07-09T18:32:49;8.50;;;2.50;;
39448;SDS011;25151;45.566;9.382;2023-07-09T18:35:29;6.30;;;2.85;;
39448;SDS011;25151;45.566;9.382;2023-07-09T18:37:58;3.20;;;2.10;;
39448;SDS011;25151;45.566;9.382;2023-07-09T18:40:26;4.90;;;2.60;;
39448;SDS011;25151;45.566;9.382;2023-07-09T18:42:55;6.85;;;2.63;;
39448;SDS011;25151;45.566;9.382;2023-07-09T18:45:23;8.23;;;2.80;;
39448;SDS011;25151;45.566;9.382;2023-07-09T18:47:51;5.20;;;2.38;;
39448;SDS011;25151;45.566;9.382;2023-07-09T18:50:37;5.38;;;2.80;;
39448;SDS011;25151;45.566;9.382;2023-07-09T18:53:04;3.53;;;2.10;;
39448;SDS011;25151;45.566;9.382;2023-07-09T18:55:30;6.13;;;2.42;;
39448;SDS011;25151;45.566;9.382;2023-07-09T18:57:57;7.25;;;2.47;;
39448;SDS011;25151;45.566;9.382;2023-07-09T19:00:23;7.40;;;3.30;;
39448;SDS011;25151;45.566;9.382;2023-07-09T19:02:51;7.00;;;2.70;;
39448;SDS011;25151;45.566;9.382;2023-07-09T19:05:23;6.03;;;2.42;;
39448;SDS011;25151;45.566;9.382;2023-07-09T19:07:53;9.13;;;2.40;;
39448;SDS011;25151;45.566;9.382;2023-07-09T19:10:25;4.85;;;2.63;;
39448;SDS011;25151;45.566;9.382;2023-07-09T19:12:55;9.38;;;2.90;;
39448;SDS011;25151;45.566;9.382;2023-07-09T19:15:26;6.07;;;2.53;;
39448;SDS011;25151;45.566;9.382;2023-07-09T19:17:57;7.85;;;2.90;;
39448;SDS011;25151;45.566;9.382;2023-07-09T19:20:23;4.80;;;2.45;;
39448;SDS011;25151;45.566;9.382;2023-07-09T19:22:51;3.65;;;2.40;;
39448;SDS011;25151;45.566;9.382;2023-07-09T19:25:19;9.75;;;2.75;;
39448;SDS011;25151;45.566;9.382;2023-07-09T19:27:51;7.53;;;2.55;;
39448;SDS011;25151;45.566;9.382;2023-07-09T19:30:19;8.65;;;2.35;;
39448;SDS011;25151;45.566;9.382;2023-07-09T19:32:51;6.65;;;2.78;;
39448;SDS011;25151;45.566;9.382;2023-07-09T19:35:23;5.38;;;2.55;;
39448;SDS011;25151;45.566;9.382;2023-07-09T19:37:50;3.50;;;2.28;;
39448;SDS011;25151;45.566;9.382;2023-07-09T19:40:21;9.88;;;2.80;;
39448;SDS011;25151;45.566;9.382;2023-07-09T19:42:50;3.88;;;2.47;;
39448;SDS011;25151;45.566;9.382;2023-07-09T19:45:20;4.72;;;2.50;;
39448;SDS011;25151;45.566;9.382;2023-07-09T19:47:48;4.38;;;2.30;;
39448;SDS011;25151;45.566;9.382;2023-07-09T19:50:23;6.63;;;2.67;;
39448;SDS011;25151;45.566;9.382;2023-07-09T19:52:53;3.92;;;2.30;;
39448;SDS011;25151;45.566;9.382;2023-07-09T19:55:24;6.95;;;2.55;;
39448;SDS011;25151;45.566;9.382;2023-07-09T19:57:52;4.82;;;2.13;;
39448;SDS011;25151;45.566;9.382;2023-07-09T20:00:20;5.78;;;2.50;;
39448;SDS011;25151;45.566;9.382;2023-07-09T20:02:50;3.53;;;2.28;;
39448;SDS011;25151;45.566;9.382;2023-07-09T20:05:24;9.52;;;2.20;;
39448;SDS011;25151;45.566;9.382;2023-07-09T20:07:58;6.57;;;2.35;;
39448;SDS011;25151;45.566;9.382;2023-07-09T20:10:27;5.07;;;2.40;;
39448;SDS011;25151;45.566;9.382;2023-07-09T20:12:55;4.05;;;2.97;;
39448;SDS011;25151;45.566;9.382;2023-07-09T20:15:25;4.03;;;2.37;;
39448;SDS011;25151;45.566;9.382;2023-07-09T20:17:53;4.22;;;2.17;;
39448;SDS011;25151;45.566;9.382;2023-07-09T20:20:21;6.47;;;2.47;;
39448;SDS011;25151;45.566;9.382;2023-07-09T20:22:49;5.72;;;2.35;;
39448;SDS011;25151;45.566;9.382;2023-07-09T20:27:46;6.40;;;2.67;;
39448;SDS011;25151;45.566;9.382;2023-07-09T20:30:14;9.45;;;2.65;;
39448;SDS011;25151;45.566;9.382;2023-07-09T20:32:45;3.92;;;2.40;;
39448;SDS011;25151;45.566;9.382;2023-07-09T20:35:22;6.03;;;2.65;;
39448;SDS011;25151;45.566;9.382;2023-07-09T20:37:50;4.60;;;2.40;;
39448;SDS011;25151;45.566;9.382;2023-07-09T20:40:18;5.40;;;2.50;;
39448;SDS011;25151;45.566;9.382;2023-07-09T20:42:46;5.90;;;2.35;;
39448;SDS011;25151;45.566;9.382;2023-07-09T20:45:22;8.32;;;3.05;;
39448;SDS011;25151;45.566;9.382;2023-07-09T20:47:59;12.57;;;2.17;;
39448;SDS011;25151;45.566;9.382;2023-07-09T20:50:26;4.68;;;2.92;;